sensor_id;sensor_type;location;lat;lon;timestamp;P1;durP1;ratioP1;P2;durP2;ratioP2
82869;SDS011;72645;47.136;15.420;2023-12-20T00:01:37;4.30;;;2.30;;
82869;SDS011;72645;47.136;15.420;2023-12-20T00:04:08;7.10;;;2.30;;
82869;SDS011;72645;47.136;15.420;2023-12-20T00:06:39;5.90;;;2.60;;
82869;SDS011;72645;47.136;15.420;2023-12-20T00:09:10;3.40;;;2.10;;
82869;SDS011;72645;47.136;15.420;2023-12-20T00:11:41;4.70;;;2.00;;
82869;SDS011;72645;47.136;15.420;2023-12-20T00:14:12;3.70;;;2.30;;
82869;SDS011;72645;47.136;15.420;2023-12-20T00:16:43;3.70;;;2.10;;
82869;SDS011;72645;47.136;15.420;2023-12-20T00:19:14;3.00;;;1.80;;
82869;SDS011;72645;47.136;15.420;2023-12-20T00:21:45;3.20;;;2.00;;
82869;SDS011;72645;47.136;15.420;2023-12-20T00:24:16;3.10;;;1.60;;
82869;SDS011;72645;47.136;15.420;2023-12-20T00:26:48;4.10;;;2.00;;
82869;SDS011;72645;47.136;15.420;2023-12-20T00:29:19;4.40;;;2.30;;
82869;SDS011;72645;47.136;15.420;2023-12-20T00:31:50;5.10;;;2.00;;
82869;SDS011;72645;47.136;15.420;2023-12-20T00:34:21;4.20;;;2.40;;
82869;SDS011;72645;47.136;15.420;2023-12-20T00:36:52;5.20;;;2.30;;
82869;SDS011;72645;47.136;15.420;2023-12-20T00:39:23;6.30;;;2.80;;
82869;SDS011;72645;47.136;15.420;2023-12-20T00:41:54;4.30;;;2.60;;
82869;SDS011;72645;47.136;15.420;2023-12-20T00:44:25;3.50;;;2.80;;
82869;SDS011;72645;47.136;15.420;2023-12-20T00:46:57;2.70;;;2.00;;
82869;SDS011;72645;47.136;15.420;2023-12-20T00:49:28;3.40;;;1.80;;
82869;SDS011;72645;47.136;15.420;2023-12-20T00:51:59;7.30;;;2.50;;
82869;SDS011;72645;47.136;15.420;2023-12-20T00:54:30;4.40;;;2.20;;
82869;SDS011;72645;47.136;15.420;2023-12-20T00:57:02;4.30;;;2.10;;
82869;SDS011;72645;47.136;15.420;2023-12-20T00:59:33;3.00;;;1.70;;
82869;SDS011;72645;47.136;15.420;2023-12-20T01:02:04;4.80;;;2.60;;
82869;SDS011;72645;47.136;15.420;2023-12-20T01:04:35;3.70;;;1.90;;
82869;SDS011;72645;47.136;15.420;2023-12-20T01:07:06;4.00;;;2.10;;
82869;SDS011;72645;47.136;15.420;2023-12-20T01:09:37;2.70;;;1.80;;
82869;SDS011;72645;47.136;15.420;2023-12-20T01:12:08;4.20;;;2.20;;
82869;SDS011;72645;47.136;15.420;2023-12-20T01:14:39;2.90;;;1.70;;
82869;SDS011;72645;47.136;15.420;2023-12-20T01:17:10;3.70;;;1.80;;
82869;SDS011;72645;47.136;15.420;2023-12-20T01:19:41;3.70;;;2.40;;
82869;SDS011;72645;47.136;15.420;2023-12-20T01:22:12;4.70;;;2.20;;
82869;SDS011;72645;47.136;15.420;2023-12-20T01:24:43;3.30;;;2.40;;
82869;SDS011;72645;47.136;15.420;2023-12-20T01:27:14;4.60;;;2.40;;
82869;SDS011;72645;47.136;15.420;2023-12-20T01:29:45;6.80;;;2.50;;
82869;SDS011;72645;47.136;15.420;2023-12-20T01:32:16;4.80;;;1.80;;
82869;SDS011;72645;47.136;15.420;2023-12-20T01:34:47;5.10;;;1.90;;
82869;SDS011;72645;47.136;15.420;2023-12-20T01:37:18;4.60;;;2.30;;
82869;SDS011;72645;47.136;15.420;2023-12-20T01:39:51;6.40;;;2.00;;
82869;SDS011;72645;47.136;15.420;2023-12-20T01:42:22;3.90;;;3.40;;
82869;SDS011;72645;47.136;15.420;2023-12-20T01:44:53;4.70;;;2.70;;
82869;SDS011;72645;47.136;15.420;2023-12-20T01:47:25;3.20;;;1.90;;
82869;SDS011;72645;47.136;15.420;2023-12-20T01:49:56;3.50;;;2.30;;
82869;SDS011;72645;47.136;15.420;2023-12-20T01:52:27;5.60;;;2.00;;
82869;SDS011;72645;47.136;15.420;2023-12-20T01:54:58;4.90;;;2.50;;
82869;SDS011;72645;47.136;15.420;2023-12-20T01:57:32;5.20;;;3.30;;
82869;SDS011;72645;47.136;15.420;2023-12-20T02:00:03;3.30;;;2.00;;
82869;SDS011;72645;47.136;15.420;2023-12-20T02:02:37;4.80;;;2.10;;
82869;SDS011;72645;47.136;15.420;2023-12-20T02:05:09;3.70;;;1.90;;
82869;SDS011;72645;47.136;15.420;2023-12-20T02:07:41;3.80;;;3.00;;
82869;SDS011;72645;47.136;15.420;2023-12-20T02:10:12;3.40;;;2.10;;
82869;SDS011;72645;47.136;15.420;2023-12-20T02:12:46;3.70;;;1.90;;
82869;SDS011;72645;47.136;15.420;2023-12-20T02:15:17;6.30;;;2.00;;
82869;SDS011;72645;47.136;15.420;2023-12-20T02:17:48;2.70;;;1.90;;
82869;SDS011;72645;47.136;15.420;2023-12-20T02:20:19;3.70;;;1.80;;
82869;SDS011;72645;47.136;15.420;2023-12-20T02:22:50;3.80;;;2.30;;
82869;SDS011;72645;47.136;15.420;2023-12-20T02:25:21;5.50;;;3.10;;
82869;SDS011;72645;47.136;15.420;2023-12-20T02:27:53;5.20;;;2.60;;
82869;SDS011;72645;47.136;15.420;2023-12-20T02:30:24;4.00;;;2.50;;
82869;SDS011;72645;47.136;15.420;2023-12-20T02:32:55;4.90;;;2.30;;
82869;SDS011;72645;47.136;15.420;2023-12-20T02:35:28;2.40;;;1.90;;
82869;SDS011;72645;47.136;15.420;2023-12-20T02:40:28;4.50;;;2.30;;
82869;SDS011;72645;47.136;15.420;2023-12-20T02:42:59;5.10;;;2.20;;
82869;SDS011;72645;47.136;15.420;2023-12-20T02:45:30;4.10;;;2.20;;
82869;SDS011;72645;47.136;15.420;2023-12-20T02:48:01;6.00;;;2.80;;
82869;SDS011;72645;47.136;15.420;2023-12-20T02:50:32;3.00;;;1.90;;
82869;SDS011;72645;47.136;15.420;2023-12-20T02:53:04;3.60;;;2.00;;
82869;SDS011;72645;47.136;15.420;2023-12-20T02:55:35;6.80;;;2.70;;
82869;SDS011;72645;47.136;15.420;2023-12-20T02:58:06;3.30;;;2.40;;
82869;SDS011;72645;47.136;15.420;2023-12-20T03:00:37;5.20;;;2.10;;
82869;SDS011;72645;47.136;15.420;2023-12-20T03:03:08;4.80;;;2.30;;
82869;SDS011;72645;47.136;15.420;2023-12-20T03:05:39;4.30;;;2.50;;
82869;SDS011;72645;47.136;15.420;2023-12-20T03:08:10;3.80;;;1.90;;
82869;SDS011;72645;47.136;15.420;2023-12-20T03:10:41;4.80;;;2.30;;
82869;SDS011;72645;47.136;15.420;2023-12-20T03:13:12;3.20;;;2.10;;
82869;SDS011;72645;47.136;15.420;2023-12-20T03:15:43;4.90;;;2.30;;
82869;SDS011;72645;47.136;15.420;2023-12-20T03:18:14;4.00;;;1.80;;
82869;SDS011;72645;47.136;15.420;2023-12-20T03:20:46;3.80;;;2.30;;
82869;SDS011;72645;47.136;15.420;2023-12-20T03:23:18;3.70;;;1.80;;
82869;SDS011;72645;47.136;15.420;2023-12-20T03:25:49;5.60;;;1.90;;
82869;SDS011;72645;47.136;15.420;2023-12-20T03:28:20;4.60;;;2.40;;
82869;SDS011;72645;47.136;15.420;2023-12-20T03:30:51;3.20;;;1.90;;
82869;SDS011;72645;47.136;15.420;2023-12-20T03:33:22;4.00;;;2.30;;
82869;SDS011;72645;47.136;15.420;2023-12-20T03:35:53;3.60;;;1.70;;
82869;SDS011;72645;47.136;15.420;2023-12-20T03:38:24;4.70;;;2.50;;
82869;SDS011;72645;47.136;15.420;2023-12-20T03:40:55;4.60;;;1.80;;
82869;SDS011;72645;47.136;15.420;2023-12-20T03:43:26;6.20;;;1.70;;
82869;SDS011;72645;47.136;15.420;2023-12-20T03:45:57;4.20;;;2.30;;
82869;SDS011;72645;47.136;15.420;2023-12-20T03:48:28;3.40;;;1.90;;
82869;SDS011;72645;47.136;15.420;2023-12-20T03:50:59;5.10;;;2.20;;
82869;SDS011;72645;47.136;15.420;2023-12-20T03:53:30;4.80;;;1.90;;
82869;SDS011;72645;47.136;15.420;2023-12-20T03:56:01;6.00;;;2.40;;
82869;SDS011;72645;47.136;15.420;2023-12-20T03:58:32;4.20;;;1.70;;
82869;SDS011;72645;47.136;15.420;2023-12-20T04:01:04;2.90;;;1.70;;
82869;SDS011;72645;47.136;15.420;2023-12-20T04:03:40;4.60;;;2.40;;
82869;SDS011;72645;47.136;15.420;2023-12-20T04:06:11;4.00;;;1.80;;
82869;SDS011;72645;47.136;15.420;2023-12-20T04:08:48;3.80;;;2.00;;
82869;SDS011;72645;47.136;15.420;2023-12-20T04:11:19;2.60;;;1.80;;
82869;SDS011;72645;47.136;15.420;2023-12-20T04:13:50;4.30;;;2.40;;
82869;SDS011;72645;47.136;15.420;2023-12-20T04:16:21;5.20;;;1.70;;
82869;SDS011;72645;47.136;15.420;2023-12-20T04:18:52;3.70;;;1.70;;
82869;SDS011;72645;47.136;15.420;2023-12-20T04:21:23;4.10;;;1.90;;
82869;SDS011;72645;47.136;15.420;2023-12-20T04:23:54;2.70;;;1.60;;
82869;SDS011;72645;47.136;15.420;2023-12-20T04:26:25;4.00;;;1.90;;
82869;SDS011;72645;47.136;15.420;2023-12-20T04:28:57;4.50;;;2.20;;
82869;SDS011;72645;47.136;15.420;2023-12-20T04:33:57;5.00;;;2.00;;
82869;SDS011;72645;47.136;15.420;2023-12-20T04:36:28;2.70;;;1.60;;
82869;SDS011;72645;47.136;15.420;2023-12-20T04:39:00;4.10;;;2.20;;
82869;SDS011;72645;47.136;15.420;2023-12-20T04:41:31;5.60;;;2.80;;
82869;SDS011;72645;47.136;15.420;2023-12-20T04:44:02;5.10;;;2.10;;
82869;SDS011;72645;47.136;15.420;2023-12-20T04:46:34;6.10;;;2.90;;
82869;SDS011;72645;47.136;15.420;2023-12-20T04:49:04;3.70;;;2.10;;
82869;SDS011;72645;47.136;15.420;2023-12-20T04:51:36;3.80;;;2.40;;
82869;SDS011;72645;47.136;15.420;2023-12-20T04:54:07;5.80;;;2.50;;
82869;SDS011;72645;47.136;15.420;2023-12-20T04:56:38;9.00;;;4.30;;
82869;SDS011;72645;47.136;15.420;2023-12-20T04:59:09;6.10;;;2.20;;
82869;SDS011;72645;47.136;15.420;2023-12-20T05:01:40;4.00;;;2.40;;
82869;SDS011;72645;47.136;15.420;2023-12-20T05:04:11;4.50;;;2.20;;
82869;SDS011;72645;47.136;15.420;2023-12-20T05:06:42;3.30;;;2.30;;
82869;SDS011;72645;47.136;15.420;2023-12-20T05:09:13;5.10;;;2.80;;
82869;SDS011;72645;47.136;15.420;2023-12-20T05:11:44;4.30;;;2.10;;
82869;SDS011;72645;47.136;15.420;2023-12-20T05:14:15;5.00;;;2.40;;
82869;SDS011;72645;47.136;15.420;2023-12-20T05:19:15;2.30;;;1.50;;
82869;SDS011;72645;47.136;15.420;2023-12-20T05:21:46;4.10;;;2.80;;
82869;SDS011;72645;47.136;15.420;2023-12-20T05:24:17;3.80;;;3.10;;
82869;SDS011;72645;47.136;15.420;2023-12-20T05:26:49;7.60;;;2.70;;
82869;SDS011;72645;47.136;15.420;2023-12-20T05:29:21;4.30;;;2.60;;
82869;SDS011;72645;47.136;15.420;2023-12-20T05:31:52;3.80;;;2.30;;
82869;SDS011;72645;47.136;15.420;2023-12-20T05:34:23;6.00;;;2.90;;
82869;SDS011;72645;47.136;15.420;2023-12-20T05:36:54;3.60;;;1.90;;
82869;SDS011;72645;47.136;15.420;2023-12-20T05:39:26;4.60;;;2.40;;
82869;SDS011;72645;47.136;15.420;2023-12-20T05:41:59;4.40;;;2.20;;
82869;SDS011;72645;47.136;15.420;2023-12-20T05:44:30;4.70;;;2.60;;
82869;SDS011;72645;47.136;15.420;2023-12-20T05:49:30;3.30;;;2.60;;
82869;SDS011;72645;47.136;15.420;2023-12-20T05:52:01;3.70;;;2.50;;
82869;SDS011;72645;47.136;15.420;2023-12-20T05:54:32;4.00;;;2.50;;
82869;SDS011;72645;47.136;15.420;2023-12-20T05:57:03;4.70;;;1.80;;
82869;SDS011;72645;47.136;15.420;2023-12-20T05:59:34;4.00;;;2.00;;
82869;SDS011;72645;47.136;15.420;2023-12-20T06:02:06;4.40;;;2.50;;
82869;SDS011;72645;47.136;15.420;2023-12-20T06:04:37;3.10;;;2.10;;
82869;SDS011;72645;47.136;15.420;2023-12-20T06:07:12;4.10;;;2.10;;
82869;SDS011;72645;47.136;15.420;2023-12-20T06:09:43;6.00;;;2.90;;
82869;SDS011;72645;47.136;15.420;2023-12-20T06:12:14;5.00;;;2.40;;
82869;SDS011;72645;47.136;15.420;2023-12-20T06:14:45;4.90;;;2.80;;
82869;SDS011;72645;47.136;15.420;2023-12-20T06:17:16;4.30;;;2.70;;
82869;SDS011;72645;47.136;15.420;2023-12-20T06:19:47;4.20;;;2.00;;
82869;SDS011;72645;47.136;15.420;2023-12-20T06:22:18;3.50;;;2.00;;
82869;SDS011;72645;47.136;15.420;2023-12-20T06:24:49;3.30;;;2.40;;
82869;SDS011;72645;47.136;15.420;2023-12-20T06:27:20;5.10;;;2.90;;
82869;SDS011;72645;47.136;15.420;2023-12-20T06:29:51;3.50;;;1.80;;
82869;SDS011;72645;47.136;15.420;2023-12-20T06:32:22;4.90;;;2.40;;
82869;SDS011;72645;47.136;15.420;2023-12-20T06:34:53;6.60;;;2.30;;
82869;SDS011;72645;47.136;15.420;2023-12-20T06:37:24;4.50;;;2.10;;
82869;SDS011;72645;47.136;15.420;2023-12-20T06:39:55;3.90;;;2.20;;
82869;SDS011;72645;47.136;15.420;2023-12-20T06:42:26;5.00;;;2.30;;
82869;SDS011;72645;47.136;15.420;2023-12-20T06:45:01;3.30;;;2.00;;
82869;SDS011;72645;47.136;15.420;2023-12-20T06:47:33;5.70;;;3.00;;
82869;SDS011;72645;47.136;15.420;2023-12-20T06:50:07;6.80;;;4.20;;
82869;SDS011;72645;47.136;15.420;2023-12-20T06:52:38;5.60;;;2.40;;
82869;SDS011;72645;47.136;15.420;2023-12-20T06:55:09;6.20;;;4.30;;
82869;SDS011;72645;47.136;15.420;2023-12-20T06:57:41;4.40;;;2.60;;
82869;SDS011;72645;47.136;15.420;2023-12-20T07:00:13;3.90;;;2.80;;
82869;SDS011;72645;47.136;15.420;2023-12-20T07:02:45;5.90;;;3.50;;
82869;SDS011;72645;47.136;15.420;2023-12-20T07:05:17;4.60;;;2.30;;
82869;SDS011;72645;47.136;15.420;2023-12-20T07:07:48;4.30;;;3.00;;
82869;SDS011;72645;47.136;15.420;2023-12-20T07:10:19;5.90;;;3.50;;
82869;SDS011;72645;47.136;15.420;2023-12-20T07:12:50;6.40;;;4.80;;
82869;SDS011;72645;47.136;15.420;2023-12-20T07:15:23;6.50;;;3.90;;
82869;SDS011;72645;47.136;15.420;2023-12-20T07:17:54;6.70;;;3.60;;
82869;SDS011;72645;47.136;15.420;2023-12-20T07:20:28;6.40;;;3.10;;
82869;SDS011;72645;47.136;15.420;2023-12-20T07:22:59;6.90;;;2.90;;
82869;SDS011;72645;47.136;15.420;2023-12-20T07:25:30;7.10;;;3.50;;
82869;SDS011;72645;47.136;15.420;2023-12-20T07:28:01;5.60;;;2.90;;
82869;SDS011;72645;47.136;15.420;2023-12-20T07:30:33;8.90;;;3.70;;
82869;SDS011;72645;47.136;15.420;2023-12-20T07:33:04;10.80;;;3.90;;
82869;SDS011;72645;47.136;15.420;2023-12-20T07:35:37;9.40;;;3.80;;
82869;SDS011;72645;47.136;15.420;2023-12-20T07:38:08;7.40;;;3.60;;
82869;SDS011;72645;47.136;15.420;2023-12-20T07:40:40;7.00;;;3.60;;
82869;SDS011;72645;47.136;15.420;2023-12-20T07:43:10;7.50;;;3.30;;
82869;SDS011;72645;47.136;15.420;2023-12-20T07:45:42;5.80;;;3.80;;
82869;SDS011;72645;47.136;15.420;2023-12-20T07:48:12;6.10;;;3.30;;
82869;SDS011;72645;47.136;15.420;2023-12-20T07:50:44;7.40;;;4.20;;
82869;SDS011;72645;47.136;15.420;2023-12-20T07:53:14;5.80;;;3.30;;
82869;SDS011;72645;47.136;15.420;2023-12-20T07:55:45;4.50;;;3.10;;
82869;SDS011;72645;47.136;15.420;2023-12-20T07:58:16;4.10;;;2.90;;
82869;SDS011;72645;47.136;15.420;2023-12-20T08:00:48;9.50;;;4.20;;
82869;SDS011;72645;47.136;15.420;2023-12-20T08:03:19;6.70;;;3.40;;
82869;SDS011;72645;47.136;15.420;2023-12-20T08:05:50;6.20;;;3.50;;
82869;SDS011;72645;47.136;15.420;2023-12-20T08:08:21;6.10;;;3.60;;
82869;SDS011;72645;47.136;15.420;2023-12-20T08:10:52;6.70;;;3.20;;
82869;SDS011;72645;47.136;15.420;2023-12-20T08:13:23;7.10;;;3.30;;
82869;SDS011;72645;47.136;15.420;2023-12-20T08:15:54;5.50;;;2.90;;
82869;SDS011;72645;47.136;15.420;2023-12-20T08:18:25;6.20;;;3.50;;
82869;SDS011;72645;47.136;15.420;2023-12-20T08:20:56;7.90;;;3.60;;
82869;SDS011;72645;47.136;15.420;2023-12-20T08:23:28;4.80;;;3.10;;
82869;SDS011;72645;47.136;15.420;2023-12-20T08:26:00;7.80;;;3.50;;
82869;SDS011;72645;47.136;15.420;2023-12-20T08:28:34;7.90;;;4.10;;
82869;SDS011;72645;47.136;15.420;2023-12-20T08:31:07;7.40;;;3.80;;
82869;SDS011;72645;47.136;15.420;2023-12-20T08:33:45;7.80;;;3.90;;
82869;SDS011;72645;47.136;15.420;2023-12-20T08:36:17;8.90;;;3.70;;
82869;SDS011;72645;47.136;15.420;2023-12-20T08:38:50;8.60;;;4.60;;
82869;SDS011;72645;47.136;15.420;2023-12-20T08:41:21;7.20;;;3.80;;
82869;SDS011;72645;47.136;15.420;2023-12-20T08:43:52;7.10;;;3.10;;
82869;SDS011;72645;47.136;15.420;2023-12-20T08:46:23;5.30;;;3.00;;
82869;SDS011;72645;47.136;15.420;2023-12-20T08:48:54;7.70;;;3.40;;
82869;SDS011;72645;47.136;15.420;2023-12-20T08:51:26;5.40;;;3.90;;
82869;SDS011;72645;47.136;15.420;2023-12-20T08:53:57;5.40;;;3.30;;
82869;SDS011;72645;47.136;15.420;2023-12-20T08:56:28;8.50;;;3.90;;
82869;SDS011;72645;47.136;15.420;2023-12-20T08:58:58;6.90;;;3.30;;
82869;SDS011;72645;47.136;15.420;2023-12-20T09:01:29;8.50;;;2.90;;
82869;SDS011;72645;47.136;15.420;2023-12-20T09:04:00;7.00;;;3.40;;
82869;SDS011;72645;47.136;15.420;2023-12-20T09:06:32;5.80;;;3.20;;
82869;SDS011;72645;47.136;15.420;2023-12-20T09:09:03;5.70;;;3.30;;
82869;SDS011;72645;47.136;15.420;2023-12-20T09:11:36;7.60;;;3.50;;
82869;SDS011;72645;47.136;15.420;2023-12-20T09:14:07;8.90;;;3.40;;
82869;SDS011;72645;47.136;15.420;2023-12-20T09:16:38;8.10;;;3.90;;
82869;SDS011;72645;47.136;15.420;2023-12-20T09:19:09;6.10;;;3.10;;
82869;SDS011;72645;47.136;15.420;2023-12-20T09:21:40;13.80;;;5.70;;
82869;SDS011;72645;47.136;15.420;2023-12-20T09:24:11;9.70;;;4.70;;
82869;SDS011;72645;47.136;15.420;2023-12-20T09:26:42;6.70;;;4.50;;
82869;SDS011;72645;47.136;15.420;2023-12-20T09:29:13;6.90;;;3.30;;
82869;SDS011;72645;47.136;15.420;2023-12-20T09:31:45;7.20;;;3.40;;
82869;SDS011;72645;47.136;15.420;2023-12-20T09:34:16;6.90;;;3.10;;
82869;SDS011;72645;47.136;15.420;2023-12-20T09:36:47;6.60;;;3.10;;
82869;SDS011;72645;47.136;15.420;2023-12-20T09:39:18;6.50;;;4.50;;
82869;SDS011;72645;47.136;15.420;2023-12-20T09:41:56;7.40;;;3.80;;
82869;SDS011;72645;47.136;15.420;2023-12-20T09:44:31;9.60;;;3.10;;
82869;SDS011;72645;47.136;15.420;2023-12-20T09:47:04;5.70;;;3.10;;
82869;SDS011;72645;47.136;15.420;2023-12-20T09:49:36;6.40;;;3.20;;
82869;SDS011;72645;47.136;15.420;2023-12-20T09:52:07;6.40;;;3.30;;
82869;SDS011;72645;47.136;15.420;2023-12-20T09:54:39;7.90;;;2.60;;
82869;SDS011;72645;47.136;15.420;2023-12-20T09:57:11;6.20;;;3.80;;
82869;SDS011;72645;47.136;15.420;2023-12-20T09:59:42;7.00;;;3.30;;
82869;SDS011;72645;47.136;15.420;2023-12-20T10:02:13;7.20;;;3.80;;
82869;SDS011;72645;47.136;15.420;2023-12-20T10:04:47;7.90;;;3.40;;
82869;SDS011;72645;47.136;15.420;2023-12-20T10:07:18;6.70;;;3.70;;
82869;SDS011;72645;47.136;15.420;2023-12-20T10:09:51;7.00;;;4.10;;
82869;SDS011;72645;47.136;15.420;2023-12-20T10:12:23;8.60;;;3.50;;
82869;SDS011;72645;47.136;15.420;2023-12-20T10:14:54;7.30;;;3.80;;
82869;SDS011;72645;47.136;15.420;2023-12-20T10:17:28;6.80;;;3.70;;
82869;SDS011;72645;47.136;15.420;2023-12-20T10:19:59;8.30;;;3.40;;
82869;SDS011;72645;47.136;15.420;2023-12-20T10:22:30;8.90;;;3.60;;
82869;SDS011;72645;47.136;15.420;2023-12-20T10:25:03;9.50;;;3.70;;
82869;SDS011;72645;47.136;15.420;2023-12-20T10:27:35;10.20;;;3.80;;
82869;SDS011;72645;47.136;15.420;2023-12-20T10:30:07;9.50;;;3.90;;
82869;SDS011;72645;47.136;15.420;2023-12-20T10:32:39;8.20;;;3.60;;
82869;SDS011;72645;47.136;15.420;2023-12-20T10:35:10;7.80;;;3.30;;
82869;SDS011;72645;47.136;15.420;2023-12-20T10:37:42;13.70;;;5.40;;
82869;SDS011;72645;47.136;15.420;2023-12-20T10:40:13;9.90;;;4.50;;
82869;SDS011;72645;47.136;15.420;2023-12-20T10:42:45;8.80;;;3.70;;
82869;SDS011;72645;47.136;15.420;2023-12-20T10:45:16;7.60;;;3.70;;
82869;SDS011;72645;47.136;15.420;2023-12-20T10:47:47;9.60;;;4.20;;
82869;SDS011;72645;47.136;15.420;2023-12-20T10:50:20;11.50;;;4.10;;
82869;SDS011;72645;47.136;15.420;2023-12-20T10:52:51;9.30;;;2.80;;
82869;SDS011;72645;47.136;15.420;2023-12-20T10:55:24;11.70;;;4.90;;
82869;SDS011;72645;47.136;15.420;2023-12-20T10:57:59;14.10;;;3.50;;
82869;SDS011;72645;47.136;15.420;2023-12-20T11:00:36;10.50;;;3.80;;
82869;SDS011;72645;47.136;15.420;2023-12-20T11:03:10;13.10;;;4.30;;
82869;SDS011;72645;47.136;15.420;2023-12-20T11:05:42;9.20;;;4.00;;
82869;SDS011;72645;47.136;15.420;2023-12-20T11:08:19;8.90;;;4.10;;
82869;SDS011;72645;47.136;15.420;2023-12-20T11:10:57;11.70;;;4.10;;
82869;SDS011;72645;47.136;15.420;2023-12-20T11:13:34;9.50;;;4.00;;
82869;SDS011;72645;47.136;15.420;2023-12-20T11:16:09;8.60;;;3.60;;
82869;SDS011;72645;47.136;15.420;2023-12-20T11:18:41;11.50;;;3.70;;
82869;SDS011;72645;47.136;15.420;2023-12-20T11:21:14;17.00;;;4.70;;
82869;SDS011;72645;47.136;15.420;2023-12-20T11:23:46;15.00;;;4.20;;
82869;SDS011;72645;47.136;15.420;2023-12-20T11:26:18;13.20;;;4.70;;
82869;SDS011;72645;47.136;15.420;2023-12-20T11:28:55;12.00;;;5.10;;
82869;SDS011;72645;47.136;15.420;2023-12-20T11:32:04;12.80;;;5.90;;
82869;SDS011;72645;47.136;15.420;2023-12-20T11:35:16;11.30;;;5.90;;
82869;SDS011;72645;47.136;15.420;2023-12-20T11:37:49;14.10;;;4.40;;
82869;SDS011;72645;47.136;15.420;2023-12-20T11:40:20;8.80;;;4.70;;
82869;SDS011;72645;47.136;15.420;2023-12-20T11:42:53;8.40;;;4.00;;
82869;SDS011;72645;47.136;15.420;2023-12-20T11:45:24;12.10;;;4.20;;
82869;SDS011;72645;47.136;15.420;2023-12-20T11:47:58;12.00;;;4.20;;
82869;SDS011;72645;47.136;15.420;2023-12-20T11:50:39;8.60;;;3.70;;
82869;SDS011;72645;47.136;15.420;2023-12-20T11:53:14;12.90;;;3.70;;
82869;SDS011;72645;47.136;15.420;2023-12-20T11:55:48;9.70;;;3.90;;
82869;SDS011;72645;47.136;15.420;2023-12-20T11:58:19;9.70;;;3.20;;
82869;SDS011;72645;47.136;15.420;2023-12-20T12:00:50;15.40;;;3.70;;
82869;SDS011;72645;47.136;15.420;2023-12-20T12:03:22;7.60;;;3.40;;
82869;SDS011;72645;47.136;15.420;2023-12-20T12:05:53;10.20;;;4.00;;
82869;SDS011;72645;47.136;15.420;2023-12-20T12:08:23;10.20;;;3.40;;
82869;SDS011;72645;47.136;15.420;2023-12-20T12:10:54;13.30;;;5.00;;
82869;SDS011;72645;47.136;15.420;2023-12-20T12:13:25;11.20;;;4.40;;
82869;SDS011;72645;47.136;15.420;2023-12-20T12:15:57;8.30;;;3.80;;
82869;SDS011;72645;47.136;15.420;2023-12-20T12:18:29;15.70;;;4.70;;
82869;SDS011;72645;47.136;15.420;2023-12-20T12:21:04;8.10;;;3.80;;
82869;SDS011;72645;47.136;15.420;2023-12-20T12:23:42;17.90;;;4.80;;
82869;SDS011;72645;47.136;15.420;2023-12-20T12:26:13;14.90;;;4.20;;
82869;SDS011;72645;47.136;15.420;2023-12-20T12:28:44;14.10;;;5.40;;
82869;SDS011;72645;47.136;15.420;2023-12-20T12:31:15;11.50;;;4.40;;
82869;SDS011;72645;47.136;15.420;2023-12-20T12:33:46;12.60;;;4.60;;
82869;SDS011;72645;47.136;15.420;2023-12-20T12:36:17;12.00;;;5.90;;
82869;SDS011;72645;47.136;15.420;2023-12-20T12:38:49;13.70;;;4.60;;
82869;SDS011;72645;47.136;15.420;2023-12-20T12:41:19;11.70;;;4.40;;
82869;SDS011;72645;47.136;15.420;2023-12-20T12:43:51;16.60;;;5.10;;
82869;SDS011;72645;47.136;15.420;2023-12-20T12:46:25;15.80;;;5.30;;
82869;SDS011;72645;47.136;15.420;2023-12-20T12:48:56;12.30;;;5.20;;
82869;SDS011;72645;47.136;15.420;2023-12-20T12:51:28;12.90;;;4.80;;
82869;SDS011;72645;47.136;15.420;2023-12-20T12:53:59;17.30;;;6.10;;
82869;SDS011;72645;47.136;15.420;2023-12-20T12:56:31;12.50;;;4.10;;
82869;SDS011;72645;47.136;15.420;2023-12-20T12:59:02;10.50;;;4.70;;
82869;SDS011;72645;47.136;15.420;2023-12-20T13:01:33;12.40;;;5.10;;
82869;SDS011;72645;47.136;15.420;2023-12-20T13:04:04;14.50;;;5.10;;
82869;SDS011;72645;47.136;15.420;2023-12-20T13:06:39;13.40;;;4.70;;
82869;SDS011;72645;47.136;15.420;2023-12-20T13:09:10;10.30;;;6.00;;
82869;SDS011;72645;47.136;15.420;2023-12-20T13:11:41;16.70;;;5.30;;
82869;SDS011;72645;47.136;15.420;2023-12-20T13:14:12;12.00;;;5.80;;
82869;SDS011;72645;47.136;15.420;2023-12-20T13:16:44;11.50;;;6.00;;
82869;SDS011;72645;47.136;15.420;2023-12-20T13:19:15;12.70;;;5.60;;
82869;SDS011;72645;47.136;15.420;2023-12-20T13:21:46;16.40;;;5.00;;
82869;SDS011;72645;47.136;15.420;2023-12-20T13:24:17;12.10;;;5.00;;
82869;SDS011;72645;47.136;15.420;2023-12-20T13:26:50;14.20;;;5.10;;
82869;SDS011;72645;47.136;15.420;2023-12-20T13:29:21;15.10;;;5.70;;
82869;SDS011;72645;47.136;15.420;2023-12-20T13:31:55;13.10;;;5.90;;
82869;SDS011;72645;47.136;15.420;2023-12-20T13:34:26;9.00;;;4.70;;
82869;SDS011;72645;47.136;15.420;2023-12-20T13:36:57;11.50;;;4.20;;
82869;SDS011;72645;47.136;15.420;2023-12-20T13:39:28;16.70;;;5.40;;
82869;SDS011;72645;47.136;15.420;2023-12-20T13:42:00;12.70;;;5.10;;
82869;SDS011;72645;47.136;15.420;2023-12-20T13:44:31;13.70;;;5.60;;
82869;SDS011;72645;47.136;15.420;2023-12-20T13:47:03;13.30;;;4.80;;
82869;SDS011;72645;47.136;15.420;2023-12-20T13:49:34;13.40;;;4.60;;
82869;SDS011;72645;47.136;15.420;2023-12-20T13:52:05;12.50;;;4.60;;
82869;SDS011;72645;47.136;15.420;2023-12-20T13:54:36;9.90;;;4.20;;
82869;SDS011;72645;47.136;15.420;2023-12-20T13:57:08;10.40;;;4.20;;
82869;SDS011;72645;47.136;15.420;2023-12-20T13:59:53;10.90;;;4.80;;
82869;SDS011;72645;47.136;15.420;2023-12-20T14:02:25;12.60;;;6.10;;
82869;SDS011;72645;47.136;15.420;2023-12-20T14:04:58;15.40;;;6.00;;
82869;SDS011;72645;47.136;15.420;2023-12-20T14:07:29;13.10;;;5.80;;
82869;SDS011;72645;47.136;15.420;2023-12-20T14:10:00;17.40;;;5.60;;
82869;SDS011;72645;47.136;15.420;2023-12-20T14:12:32;11.20;;;5.70;;
82869;SDS011;72645;47.136;15.420;2023-12-20T14:15:05;10.60;;;5.00;;
82869;SDS011;72645;47.136;15.420;2023-12-20T14:17:39;9.50;;;5.20;;
82869;SDS011;72645;47.136;15.420;2023-12-20T14:20:11;10.80;;;5.20;;
82869;SDS011;72645;47.136;15.420;2023-12-20T14:22:43;11.80;;;5.50;;
82869;SDS011;72645;47.136;15.420;2023-12-20T14:25:14;10.80;;;4.90;;
82869;SDS011;72645;47.136;15.420;2023-12-20T14:27:46;11.30;;;5.40;;
82869;SDS011;72645;47.136;15.420;2023-12-20T14:30:17;11.50;;;4.90;;
82869;SDS011;72645;47.136;15.420;2023-12-20T14:32:48;11.10;;;4.90;;
82869;SDS011;72645;47.136;15.420;2023-12-20T14:35:19;7.80;;;4.20;;
82869;SDS011;72645;47.136;15.420;2023-12-20T14:37:50;8.60;;;4.30;;
82869;SDS011;72645;47.136;15.420;2023-12-20T14:40:21;8.00;;;3.90;;
82869;SDS011;72645;47.136;15.420;2023-12-20T14:42:52;9.40;;;4.70;;
82869;SDS011;72645;47.136;15.420;2023-12-20T14:45:24;10.20;;;5.10;;
82869;SDS011;72645;47.136;15.420;2023-12-20T14:47:55;9.90;;;5.40;;
82869;SDS011;72645;47.136;15.420;2023-12-20T14:50:27;12.80;;;5.60;;
82869;SDS011;72645;47.136;15.420;2023-12-20T14:52:58;13.20;;;4.80;;
82869;SDS011;72645;47.136;15.420;2023-12-20T14:55:28;8.80;;;4.10;;
82869;SDS011;72645;47.136;15.420;2023-12-20T14:57:59;10.00;;;5.00;;
82869;SDS011;72645;47.136;15.420;2023-12-20T15:00:30;11.40;;;5.40;;
82869;SDS011;72645;47.136;15.420;2023-12-20T15:03:02;20.80;;;8.30;;
82869;SDS011;72645;47.136;15.420;2023-12-20T15:05:35;16.20;;;6.40;;
82869;SDS011;72645;47.136;15.420;2023-12-20T15:08:06;19.70;;;7.40;;